Steptoe, Washington
Current Conditions -  °F | °C
As of 11:53 AM on Saturday 25 Oct 2014 (Local Time) from KPUW Reporting Station
Clear Clear  
Wind Chill: 58°   Ceiling: Unl
Heat Index: 58°   Visibility: 10mi
Dew Point: 45°   Wind: 18mph
Humidity: 62%   Direction: 100°E
Pressure: 29.64"   Gusts: NA
Location:  47.01°N, 117.36°W
Report Text: KPUW 251853Z AUTO 10016KT 10SM CLR 14/07 A2964 RMK AO2 SLP037 T01440072
Loading
Personal Weather Stations






























Interactive Weather Map
Tropical Storm Tracking
New forecast layout! Learn more

10-Day Weather Forecast

Advertisements
Track Severe Weather on mobile